createdAt,value
2018-12-26T00:00:16.393Z,-2.4
2018-12-26T00:01:05.577Z,-2.4
2018-12-26T00:01:55.655Z,-2.4
2018-12-26T00:02:47.912Z,-2.5
2018-12-26T00:03:36.032Z,-2.4
2018-12-26T00:04:25.927Z,-2.5
2018-12-26T00:05:16.019Z,-2.5
2018-12-26T00:06:06.197Z,-2.4
2018-12-26T00:06:55.984Z,-2.4
2018-12-26T00:07:45.794Z,-2.4
2018-12-26T00:08:36.095Z,-2.4
2018-12-26T00:09:26.491Z,-2.4
2018-12-26T00:10:15.929Z,-2.4
2018-12-26T00:11:06.269Z,-2.4
2018-12-26T00:11:56.314Z,-2.5
2018-12-26T00:12:46.641Z,-2.5
2018-12-26T00:13:36.179Z,-2.6
2018-12-26T00:14:26.789Z,-2.6
2018-12-26T00:32:37.767Z,-2.8
2018-12-26T00:33:27.298Z,-2.8
2018-12-26T00:34:17.448Z,-2.8
2018-12-26T00:35:07.135Z,-2.8
2018-12-26T00:35:57.165Z,-2.9
2018-12-26T00:36:47.265Z,-2.9
2018-12-26T00:37:37.874Z,-2.9
2018-12-26T00:38:27.155Z,-2.9
2018-12-26T00:39:16.937Z,-2.9
2018-12-26T00:40:07.259Z,-2.9
2018-12-26T00:40:57.042Z,-2.9
2018-12-26T00:41:47.365Z,-3
2018-12-26T00:42:38.482Z,-3
2018-12-26T00:43:27.963Z,-3
2018-12-26T00:44:17.184Z,-3
2018-12-26T00:45:08.069Z,-3
2018-12-26T00:45:57.842Z,-2.9
2018-12-26T00:46:47.897Z,-2.9
2018-12-26T00:47:38.006Z,-2.9
2018-12-26T00:48:27.812Z,-3
2018-12-26T00:49:18.084Z,-3
2018-12-26T00:50:08.477Z,-2.9
2018-12-26T00:50:58.482Z,-2.9
2018-12-26T00:51:48.251Z,-2.9
2018-12-26T00:52:38.679Z,-3.1
2018-12-26T00:53:28.373Z,-3.1
2018-12-26T00:54:18.142Z,-3.1
2018-12-26T00:55:08.226Z,-3
2018-12-26T00:55:58.806Z,-3.1
2018-12-26T00:56:48.589Z,-2.9
2018-12-26T00:57:38.184Z,-2.9
2018-12-26T00:58:28.221Z,-2.9
2018-12-26T00:59:18.293Z,-2.9
2018-12-26T01:00:08.354Z,-2.8
2018-12-26T01:00:58.871Z,-2.8
2018-12-26T01:01:49.044Z,-2.9
2018-12-26T01:02:39.311Z,-2.9
2018-12-26T01:03:28.785Z,-2.9
2018-12-26T01:04:18.846Z,-2.9
2018-12-26T01:05:09.158Z,-2.9
2018-12-26T01:05:59.055Z,-2.9
2018-12-26T01:06:49.550Z,-3
2018-12-26T01:07:39.613Z,-3
2018-12-26T01:08:29.108Z,-3
2018-12-26T01:09:19.165Z,-2.9
2018-12-26T01:10:10.038Z,-2.9
2018-12-26T01:10:59.570Z,-2.8
2018-12-26T01:11:49.965Z,-2.9
2018-12-26T01:12:39.387Z,-2.8
2018-12-26T01:13:29.782Z,-2.8
2018-12-26T01:14:19.530Z,-2.8
2018-12-26T01:15:09.826Z,-2.9
2018-12-26T01:15:59.927Z,-3
2018-12-26T01:16:49.789Z,-3
2018-12-26T01:17:39.742Z,-2.9
2018-12-26T01:18:30.357Z,-2.9
2018-12-26T01:19:19.630Z,-2.9
2018-12-26T01:20:10.490Z,-2.9
2018-12-26T01:21:00.230Z,-2.9
2018-12-26T01:21:50.372Z,-2.9
2018-12-26T01:22:40.099Z,-3
2018-12-26T01:23:30.692Z,-2.9
2018-12-26T01:24:20.160Z,-2.9
2018-12-26T01:25:10.521Z,-2.9
2018-12-26T01:26:00.915Z,-2.9
2018-12-26T01:26:50.927Z,-2.9
2018-12-26T01:27:40.977Z,-2.9
2018-12-26T01:28:30.477Z,-2.9
2018-12-26T01:29:20.614Z,-2.9
2018-12-26T01:30:10.872Z,-2.8
2018-12-26T01:31:00.922Z,-2.8
2018-12-26T01:31:51.000Z,-2.9
2018-12-26T01:32:40.766Z,-2.8
2018-12-26T01:33:31.104Z,-2.8
2018-12-26T01:34:21.943Z,-2.8
2018-12-26T01:35:10.684Z,-2.9
2018-12-26T01:36:01.289Z,-2.9
2018-12-26T01:36:51.336Z,-2.9
2018-12-26T01:37:41.649Z,-2.9
2018-12-26T01:38:31.794Z,-2.9
2018-12-26T01:39:21.521Z,-2.9
2018-12-26T01:40:11.564Z,-3
2018-12-26T01:41:01.616Z,-3
2018-12-26T01:41:51.914Z,-3.1
2018-12-26T01:42:41.443Z,-3
2018-12-26T01:43:32.054Z,-3
2018-12-26T01:44:21.941Z,-3
2018-12-26T01:45:12.176Z,-3
2018-12-26T01:46:01.940Z,-3
2018-12-26T01:46:52.008Z,-2.9
2018-12-26T01:47:42.056Z,-2.9
2018-12-26T01:48:31.626Z,-2.9
2018-12-26T01:49:22.181Z,-3
2018-12-26T01:50:11.965Z,-3
2018-12-26T01:51:02.031Z,-3.1
2018-12-26T01:51:52.358Z,-3.1
2018-12-26T01:52:42.435Z,-3.1
2018-12-26T01:53:32.733Z,-3.1
2018-12-26T01:54:22.521Z,-3.1
2018-12-26T01:55:12.885Z,-3.2
2018-12-26T01:56:02.915Z,-3.2
2018-12-26T01:56:52.970Z,-3.1
2018-12-26T01:57:42.755Z,-3
2018-12-26T01:58:32.808Z,-3
2018-12-26T01:59:23.136Z,-2.9
2018-12-26T02:00:12.923Z,-3
2018-12-26T02:01:03.276Z,-3
2018-12-26T02:01:53.320Z,-3.1
2018-12-26T02:02:43.340Z,-3.1
2018-12-26T02:03:33.235Z,-3.1
2018-12-26T02:04:22.920Z,-3.1
2018-12-26T02:05:13.781Z,-3.1
2018-12-26T02:06:03.615Z,-3.1
2018-12-26T02:06:53.496Z,-3.1
2018-12-26T02:07:43.434Z,-3.1
2018-12-26T02:08:33.217Z,-3.1
2018-12-26T02:09:23.662Z,-3
2018-12-26T02:10:13.605Z,-2.9
2018-12-26T02:11:03.657Z,-3
2018-12-26T02:11:53.989Z,-3.1
2018-12-26T02:12:43.221Z,-3.1
2018-12-26T02:13:33.557Z,-3.1
2018-12-26T02:14:24.169Z,-3.1
2018-12-26T02:15:14.050Z,-3.1
2018-12-26T02:16:04.272Z,-3.2
2018-12-26T02:16:54.064Z,-3.2
2018-12-26T02:17:43.857Z,-3.2
2018-12-26T02:18:34.157Z,-3.2
2018-12-26T02:19:24.304Z,-3.2
2018-12-26T02:20:14.554Z,-3.3
2018-12-26T02:21:04.136Z,-3.3
2018-12-26T02:21:54.691Z,-3.2
2018-12-26T02:22:44.563Z,-3.3
2018-12-26T02:23:34.786Z,-3.2
2018-12-26T02:24:24.281Z,-3.1
2018-12-26T02:25:14.634Z,-3.2
2018-12-26T02:26:04.971Z,-3.2
2018-12-26T02:26:54.178Z,-3.3
2018-12-26T02:27:45.329Z,-3.3
2018-12-26T02:28:34.561Z,-3.3
2018-12-26T02:29:24.356Z,-3.1
2018-12-26T02:30:15.083Z,-3.3
2018-12-26T02:31:05.283Z,-3.2
2018-12-26T02:31:55.106Z,-3.3
2018-12-26T02:32:45.413Z,-3.3
2018-12-26T02:33:35.476Z,-3.3
2018-12-26T02:34:25.611Z,-3.3
2018-12-26T02:35:14.763Z,-3.3
2018-12-26T02:36:06.080Z,-3.3
2018-12-26T02:36:55.178Z,-3.4
2018-12-26T02:37:45.542Z,-3.4
2018-12-26T02:38:35.573Z,-3.4
2018-12-26T02:39:25.673Z,-3.5
2018-12-26T02:40:15.944Z,-3.5
2018-12-26T02:41:05.450Z,-3.6
2018-12-26T02:41:56.053Z,-3.6
2018-12-26T02:42:45.839Z,-3.6
2018-12-26T02:43:36.154Z,-3.6
2018-12-26T02:44:26.488Z,-3.6
2018-12-26T02:45:16.200Z,-3.6
2018-12-26T02:46:05.802Z,-3.6
2018-12-26T02:46:56.120Z,-3.6
2018-12-26T02:47:45.931Z,-3.6
2018-12-26T02:48:36.544Z,-3.6
2018-12-26T02:49:26.768Z,-3.6
2018-12-26T02:50:15.793Z,-3.7
2018-12-26T02:51:06.702Z,-3.7
2018-12-26T02:51:56.999Z,-3.7
2018-12-26T02:52:46.597Z,-3.6
2018-12-26T02:53:36.572Z,-3.6
2018-12-26T02:54:26.632Z,-3.5
2018-12-26T02:55:16.707Z,-3.5
2018-12-26T02:56:07.029Z,-3.5
2018-12-26T02:56:57.098Z,-3.5
2018-12-26T02:57:47.154Z,-3.4
2018-12-26T02:58:36.663Z,-3.4
2018-12-26T02:59:27.266Z,-3.4
2018-12-26T03:00:17.046Z,-3.3
2018-12-26T03:01:07.096Z,-3.2
2018-12-26T03:01:57.509Z,-3.1
2018-12-26T03:02:47.509Z,-3.2
2018-12-26T03:03:37.569Z,-3.2
2018-12-26T03:04:27.058Z,-3.2
2018-12-26T03:05:17.903Z,-3.1
2018-12-26T03:06:07.177Z,-3.1
2018-12-26T03:06:56.903Z,-3.1
2018-12-26T03:07:47.790Z,-3.1
2018-12-26T03:08:37.620Z,-3.1
2018-12-26T03:09:27.123Z,-3.1
2018-12-26T03:10:17.445Z,-3.1
2018-12-26T03:11:07.596Z,-3.1
2018-12-26T03:11:58.096Z,-3.1
2018-12-26T03:12:48.133Z,-3
2018-12-26T03:13:37.941Z,-3
2018-12-26T03:14:28.061Z,-3
2018-12-26T03:15:18.455Z,-2.9
2018-12-26T03:16:08.139Z,-2.9
2018-12-26T03:16:57.649Z,-2.9
2018-12-26T03:17:48.265Z,-2.9
2018-12-26T03:18:38.822Z,-2.9
2018-12-26T03:19:28.616Z,-3
2018-12-26T03:20:18.455Z,-3
2018-12-26T03:21:08.742Z,-3.1
2018-12-26T03:21:58.980Z,-3
2018-12-26T03:22:48.554Z,-2.9
2018-12-26T03:23:38.897Z,-3
2018-12-26T03:24:28.724Z,-3
2018-12-26T03:25:18.762Z,-3
2018-12-26T03:26:09.083Z,-3
2018-12-26T03:26:59.137Z,-2.9
2018-12-26T03:27:49.182Z,-3
2018-12-26T03:28:38.416Z,-3
2018-12-26T03:29:29.080Z,-3
2018-12-26T03:30:18.908Z,-3
2018-12-26T03:31:08.996Z,-3
2018-12-26T03:31:59.576Z,-3
2018-12-26T03:32:49.015Z,-3
2018-12-26T03:33:39.319Z,-3.1
2018-12-26T03:34:28.829Z,-3.1
2018-12-26T03:35:18.904Z,-3.1
2018-12-26T03:36:09.511Z,-3
2018-12-26T03:36:59.554Z,-3
2018-12-26T03:37:49.622Z,-3.1
2018-12-26T03:38:39.669Z,-3
2018-12-26T03:39:29.456Z,-3
2018-12-26T03:40:20.028Z,-3.1
2018-12-26T03:41:10.192Z,-3.1
2018-12-26T03:41:59.893Z,-3.1
2018-12-26T03:42:49.679Z,-3.1
2018-12-26T03:43:39.421Z,-3.1
2018-12-26T03:44:29.779Z,-3.1
2018-12-26T03:45:20.374Z,-3
2018-12-26T03:46:09.617Z,-3.1
2018-12-26T03:47:00.353Z,-3
2018-12-26T03:47:50.541Z,-3.1
2018-12-26T03:48:40.609Z,-3
2018-12-26T03:49:30.401Z,-3
2018-12-26T03:50:19.897Z,-3
2018-12-26T03:51:10.509Z,-3.1
2018-12-26T03:52:03.358Z,-3.1
2018-12-26T03:52:50.655Z,-3.2
2018-12-26T03:53:40.677Z,-3.1
2018-12-26T03:54:30.468Z,-3.1
2018-12-26T03:55:20.820Z,-3.1
2018-12-26T03:56:10.325Z,-3.2
2018-12-26T03:57:09.253Z,-3.2
2018-12-26T03:57:50.145Z,-3.2
2018-12-26T03:58:41.288Z,-3.2
2018-12-26T03:59:31.361Z,-3.2
2018-12-26T04:00:21.165Z,-3.3
2018-12-26T04:01:11.220Z,-3.3
2018-12-26T04:02:01.543Z,-3.3
2018-12-26T04:02:51.036Z,-3.2
2018-12-26T04:03:41.370Z,-3.1
2018-12-26T04:04:31.146Z,-3.1
2018-12-26T04:05:21.215Z,-3.1
2018-12-26T04:06:11.534Z,-3.1
2018-12-26T04:07:01.600Z,-3.1
2018-12-26T04:07:51.666Z,-3.1
2018-12-26T04:08:41.152Z,-3.1
2018-12-26T04:09:31.778Z,-3.1
2018-12-26T04:10:21.267Z,-3.1
2018-12-26T04:11:12.435Z,-3.1
2018-12-26T04:12:02.268Z,-3.1
2018-12-26T04:12:52.315Z,-3.2
2018-12-26T04:13:41.770Z,-3.3
2018-12-26T04:14:32.113Z,-3.2
2018-12-26T04:15:21.748Z,-3.3
2018-12-26T04:16:12.544Z,-3.3
2018-12-26T04:17:02.537Z,-3.3
2018-12-26T04:17:52.592Z,-3.3
2018-12-26T04:18:42.377Z,-3.3
2018-12-26T04:19:32.162Z,-3.3
2018-12-26T04:20:22.522Z,-3.2
2018-12-26T04:21:12.271Z,-3.2
2018-12-26T04:22:02.051Z,-3.3
2018-12-26T04:22:52.121Z,-3.3
2018-12-26T04:23:42.447Z,-3.3
2018-12-26T04:24:32.816Z,-3.3
2018-12-26T04:25:23.484Z,-3.3
2018-12-26T04:26:12.907Z,-3.3
2018-12-26T04:27:03.244Z,-3.2
2018-12-26T04:27:53.303Z,-3.2
2018-12-26T04:28:43.101Z,-3.1
2018-12-26T04:29:33.118Z,-3.1
2018-12-26T04:30:23.487Z,-3.1
2018-12-26T04:31:13.623Z,-3
2018-12-26T04:32:03.422Z,-3
2018-12-26T04:32:53.084Z,-3
2018-12-26T04:33:43.426Z,-2.9
2018-12-26T04:34:33.735Z,-2.9
2018-12-26T04:35:23.777Z,-2.9
2018-12-26T04:36:13.588Z,-2.8
2018-12-26T04:37:03.685Z,-2.8
2018-12-26T04:37:53.423Z,-2.8
2018-12-26T04:38:43.203Z,-2.7
2018-12-26T04:39:33.812Z,-2.6
2018-12-26T04:40:23.045Z,-2.6
2018-12-26T04:41:14.193Z,-2.6
2018-12-26T04:42:04.253Z,-2.6
2018-12-26T04:42:54.033Z,-2.6
2018-12-26T04:43:44.080Z,-2.6
2018-12-26T04:44:34.520Z,-2.6
2018-12-26T05:01:57.012Z,-2.7
2018-12-26T05:02:45.706Z,-2.8
2018-12-26T05:03:36.626Z,-2.7
2018-12-26T05:04:26.374Z,-2.8
2018-12-26T05:05:16.508Z,-2.8
2018-12-26T05:06:06.994Z,-2.8
2018-12-26T05:06:56.574Z,-2.7
2018-12-26T05:07:46.845Z,-2.8
2018-12-26T05:08:36.911Z,-2.8
2018-12-26T05:09:26.960Z,-2.8
2018-12-26T05:10:17.019Z,-2.8
2018-12-26T05:11:07.082Z,-2.8
2018-12-26T05:11:56.856Z,-2.8
2018-12-26T05:12:47.174Z,-2.8
2018-12-26T05:13:36.964Z,-2.8
2018-12-26T05:14:27.160Z,-2.8
2018-12-26T05:15:17.091Z,-2.8
2018-12-26T05:16:07.477Z,-2.8
2018-12-26T05:16:57.568Z,-2.8
2018-12-26T05:17:46.700Z,-2.8
2018-12-26T05:18:37.318Z,-2.8
2018-12-26T05:19:27.381Z,-2.8
2018-12-26T05:20:17.140Z,-2.8
2018-12-26T05:21:07.458Z,-2.8
2018-12-26T05:21:57.265Z,-2.7
2018-12-26T05:22:47.867Z,-2.6
2018-12-26T05:23:37.672Z,-2.6
2018-12-26T05:24:27.752Z,-2.6
2018-12-26T05:25:17.490Z,-2.6
2018-12-26T05:26:07.893Z,-2.6
2018-12-26T05:26:57.890Z,-2.6
2018-12-26T05:27:48.303Z,-2.5
2018-12-26T05:28:38.336Z,-2.6
2018-12-26T05:29:28.142Z,-2.6
2018-12-26T05:30:18.098Z,-2.6
2018-12-26T05:31:08.170Z,-2.7
2018-12-26T05:31:57.944Z,-2.7
2018-12-26T05:32:48.082Z,-2.7
2018-12-26T05:33:38.610Z,-2.7
2018-12-26T05:34:28.407Z,-2.7
2018-12-26T05:35:18.307Z,-2.7
2018-12-26T05:36:08.500Z,-2.8
2018-12-26T05:36:57.994Z,-2.8
2018-12-26T05:37:48.394Z,-2.8
2018-12-26T05:38:38.689Z,-2.8
2018-12-26T05:39:28.460Z,-2.8
2018-12-26T05:40:18.811Z,-2.8
2018-12-26T05:41:09.154Z,-2.8
2018-12-26T05:41:58.902Z,-2.8
2018-12-26T05:42:49.218Z,-2.8
2018-12-26T05:43:39.283Z,-2.8
2018-12-26T05:44:29.071Z,-2.8
2018-12-26T05:45:19.161Z,-2.8
2018-12-26T05:46:09.189Z,-2.8
2018-12-26T05:46:59.508Z,-2.7
2018-12-26T05:47:49.019Z,-2.7
2018-12-26T05:48:39.353Z,-2.7
2018-12-26T05:49:29.411Z,-2.8
2018-12-26T05:50:19.176Z,-2.8
2018-12-26T05:51:08.968Z,-2.8
2018-12-26T05:51:59.580Z,-2.8
2018-12-26T05:52:49.651Z,-2.8
2018-12-26T05:53:39.741Z,-2.8
2018-12-26T05:54:29.737Z,-2.8
2018-12-26T05:55:19.533Z,-2.8
2018-12-26T05:56:09.873Z,-2.8
2018-12-26T05:56:59.900Z,-2.7
2018-12-26T05:57:49.701Z,-2.7
2018-12-26T05:58:39.803Z,-2.7
2018-12-26T05:59:29.822Z,-2.7
2018-12-26T06:00:20.002Z,-2.7
2018-12-26T06:01:09.653Z,-2.7
2018-12-26T06:02:00.538Z,-2.7
2018-12-26T06:02:50.305Z,-2.8
2018-12-26T06:03:40.095Z,-2.8
2018-12-26T06:04:30.953Z,-2.8
2018-12-26T06:05:20.305Z,-2.7
2018-12-26T06:06:10.640Z,-2.8
2018-12-26T06:07:00.602Z,-2.8
2018-12-26T06:07:50.947Z,-2.8
2018-12-26T06:08:41.015Z,-2.8
2018-12-26T06:09:31.040Z,-2.8
2018-12-26T06:10:20.829Z,-2.9
2018-12-26T06:11:11.159Z,-2.9
2018-12-26T06:12:00.934Z,-2.9
2018-12-26T06:12:51.239Z,-2.9
2018-12-26T06:13:41.332Z,-2.8
2018-12-26T06:14:31.097Z,-2.8
2018-12-26T06:15:21.154Z,-2.8
2018-12-26T06:16:10.659Z,-2.8
2018-12-26T06:17:01.014Z,-2.8
2018-12-26T06:17:51.656Z,-2.8
2018-12-26T06:18:41.109Z,-2.8
2018-12-26T06:19:31.446Z,-2.8
2018-12-26T06:20:21.515Z,-2.8
2018-12-26T06:21:11.295Z,-2.7
2018-12-26T06:22:01.621Z,-2.7
2018-12-26T06:22:51.720Z,-2.6
2018-12-26T06:23:41.693Z,-2.6
2018-12-26T06:24:31.794Z,-2.6
2018-12-26T06:25:21.854Z,-2.5
2018-12-26T06:26:12.010Z,-2.5
2018-12-26T06:27:01.687Z,-2.4
2018-12-26T06:27:53.695Z,-2.4
2018-12-26T06:28:42.337Z,-2.4
2018-12-26T06:29:31.743Z,-2.4
2018-12-26T06:30:21.734Z,-2.3
2018-12-26T06:31:12.516Z,-2.2
2018-12-26T06:32:02.022Z,-2.1
2018-12-26T06:32:52.375Z,-2.1
2018-12-26T06:33:42.373Z,-2.1
2018-12-26T06:34:32.739Z,-2.1
2018-12-26T06:35:23.104Z,-2
2018-12-26T06:36:12.595Z,-2
2018-12-26T06:37:02.346Z,-2
2018-12-26T06:37:53.092Z,-2
2018-12-26T06:38:43.246Z,-2
2018-12-26T06:39:33.084Z,-1.9
2018-12-26T06:40:22.861Z,-1.9
2018-12-26T06:41:12.629Z,-1.9
2018-12-26T06:42:03.258Z,-1.8
2018-12-26T06:42:53.021Z,-1.8
2018-12-26T06:43:43.138Z,-1.8
2018-12-26T06:44:35.589Z,-1.8
2018-12-26T06:45:22.923Z,-1.8
2018-12-26T06:46:13.535Z,-1.8
2018-12-26T06:47:03.591Z,-1.8
2018-12-26T06:47:53.636Z,-1.7
2018-12-26T06:48:42.955Z,-1.7
2018-12-26T06:49:33.198Z,-1.7
2018-12-26T06:50:23.936Z,-1.6
2018-12-26T06:51:13.871Z,-1.7
2018-12-26T06:52:03.663Z,-1.6
2018-12-26T06:52:53.983Z,-1.6
2018-12-26T06:53:43.825Z,-1.6
2018-12-26T06:54:33.286Z,-1.6
2018-12-26T06:55:23.348Z,-1.5
2018-12-26T06:56:13.936Z,-1.4
2018-12-26T06:57:04.064Z,-1.4
2018-12-26T06:58:02.723Z,-1.4
2018-12-26T06:58:44.108Z,-1.3
2018-12-26T06:59:33.973Z,-1.3
2018-12-26T07:00:23.402Z,-1.3
2018-12-26T07:01:14.280Z,-1.3
2018-12-26T07:02:04.047Z,-1.3
2018-12-26T07:02:54.180Z,-1.3
2018-12-26T07:03:43.912Z,-1.3
2018-12-26T07:04:34.767Z,-1.2
2018-12-26T07:05:24.860Z,-1
2018-12-26T07:07:55.001Z,-1.1
2018-12-26T07:09:35.129Z,-1
2018-12-26T07:10:24.375Z,-1
2018-12-26T07:11:14.972Z,-1
2018-12-26T07:12:55.075Z,-0.8
2018-12-26T07:13:44.852Z,-0.8
2018-12-26T07:14:35.265Z,-0.8
2018-12-26T07:15:24.815Z,-0.7
2018-12-26T07:16:17.400Z,-0.7
2018-12-26T07:17:05.724Z,-0.6
2018-12-26T07:17:55.414Z,-0.6
2018-12-26T07:18:45.192Z,-0.6
2018-12-26T07:19:34.926Z,-0.6
2018-12-26T07:20:26.264Z,-0.5
2018-12-26T07:21:15.644Z,-0.4
2018-12-26T07:22:05.709Z,-0.3
2018-12-26T07:22:56.048Z,-0.4
2018-12-26T07:23:45.556Z,-0.4
2018-12-26T07:24:35.941Z,-0.4
2018-12-26T07:25:25.096Z,-0.3
2018-12-26T07:26:15.711Z,-0.3
2018-12-26T07:27:06.051Z,-0.3
2018-12-26T07:27:56.101Z,-0.2
2018-12-26T07:28:45.886Z,-0.3
2018-12-26T07:29:36.229Z,-0.1
2018-12-26T07:30:26.263Z,0
2018-12-26T07:31:16.642Z,0
2018-12-26T07:32:06.676Z,0.2
2018-12-26T07:32:56.741Z,0.5
2018-12-26T07:33:46.523Z,0.4
2018-12-26T07:34:45.043Z,0.1
2018-12-26T07:35:25.802Z,0.2
2018-12-26T07:36:17.376Z,0.1
2018-12-26T07:37:06.736Z,0.1
2018-12-26T07:37:57.066Z,0.1
2018-12-26T07:38:46.871Z,0.1
2018-12-26T07:39:37.180Z,-0.1
2018-12-26T07:40:26.728Z,-0.1
2018-12-26T07:41:16.208Z,0.1
2018-12-26T07:42:07.360Z,0.3
2018-12-26T07:42:57.398Z,0.4
2018-12-26T07:43:47.474Z,0.6
2018-12-26T07:44:37.611Z,0.5
2018-12-26T07:45:26.770Z,0.3
2018-12-26T07:46:17.243Z,0.3
2018-12-26T07:47:07.695Z,0.4
2018-12-26T07:47:57.482Z,0.5
2018-12-26T07:48:47.817Z,0.5
2018-12-26T07:49:37.894Z,0.5
2018-12-26T07:50:27.394Z,0.4
2018-12-26T07:51:17.959Z,0.3
2018-12-26T07:52:08.007Z,0.4
2018-12-26T07:52:57.807Z,0.4
2018-12-26T07:53:47.340Z,0.5
2018-12-26T07:54:37.937Z,0.5
2018-12-26T07:55:28.002Z,0.4
2018-12-26T07:56:18.327Z,0.4
2018-12-26T07:57:08.525Z,0.4
2018-12-26T07:57:57.892Z,0.6
2018-12-26T07:58:47.682Z,0.5
2018-12-26T07:59:40.497Z,0.4
2018-12-26T08:00:28.342Z,0.4
2018-12-26T08:01:18.799Z,0.4
2018-12-26T08:02:07.914Z,0.5
2018-12-26T08:02:58.791Z,0.5
2018-12-26T08:03:48.289Z,0.5
2018-12-26T08:04:38.624Z,0.6
2018-12-26T08:05:28.689Z,0.6
2018-12-26T08:06:19.023Z,0.7
2018-12-26T08:07:09.099Z,0.8
2018-12-26T08:07:59.161Z,0.8
2018-12-26T08:08:48.914Z,0.9
2018-12-26T08:09:38.974Z,0.9
2018-12-26T08:10:28.495Z,0.9
2018-12-26T08:11:19.086Z,0.9
2018-12-26T08:12:08.861Z,1
2018-12-26T08:12:59.488Z,1.1
2018-12-26T08:13:49.261Z,1
2018-12-26T08:14:38.758Z,1
2018-12-26T08:15:29.641Z,1
2018-12-26T08:16:18.886Z,1.1
2018-12-26T08:17:09.631Z,1.3
2018-12-26T08:17:59.655Z,1.3
2018-12-26T08:18:49.333Z,1.1
2018-12-26T08:19:39.923Z,1.2
2018-12-26T08:20:29.428Z,1.2
2018-12-26T08:21:19.769Z,1.1
2018-12-26T08:22:10.061Z,1.3
2018-12-26T08:23:00.163Z,1.7
2018-12-26T08:23:49.733Z,1.9
2018-12-26T08:24:40.263Z,2.1
2018-12-26T08:25:30.452Z,2
2018-12-26T08:26:19.840Z,1.6
2018-12-26T08:27:10.724Z,1.4
2018-12-26T08:28:00.535Z,1.4
2018-12-26T08:28:49.470Z,1.5
2018-12-26T08:29:40.058Z,1.6
2018-12-26T08:30:30.130Z,1.9
2018-12-26T08:31:20.728Z,1.9
2018-12-26T08:32:10.920Z,2
2018-12-26T08:33:00.837Z,2.1
2018-12-26T08:33:50.073Z,2.1
2018-12-26T08:34:40.437Z,1.9
2018-12-26T08:35:31.011Z,1.9
2018-12-26T08:36:21.105Z,2.1
2018-12-26T08:37:10.277Z,2.3
2018-12-26T08:38:01.159Z,2.4
2018-12-26T08:38:50.979Z,2.4
2018-12-26T08:39:41.307Z,2.3
2018-12-26T08:40:31.364Z,2.6
2018-12-26T08:41:20.623Z,2.4
2018-12-26T08:42:10.922Z,2.5
2018-12-26T08:43:00.749Z,2.4
2018-12-26T08:43:51.579Z,2.3
2018-12-26T08:44:41.094Z,2.3
2018-12-26T08:45:30.870Z,2.1
2018-12-26T08:46:21.794Z,2.1
2018-12-26T08:47:11.817Z,2.1
2018-12-26T08:48:01.606Z,2.1
2018-12-26T08:48:51.651Z,2.1
2018-12-26T08:49:42.009Z,2
2018-12-26T08:50:31.776Z,1.9
2018-12-26T08:51:22.098Z,1.9
2018-12-26T08:52:12.512Z,1.8
2018-12-26T08:53:01.396Z,1.9
2018-12-26T08:53:52.255Z,2.1
2018-12-26T08:54:42.056Z,2.1
2018-12-26T08:55:32.121Z,2.1
2018-12-26T08:56:22.283Z,2.2
2018-12-26T08:57:12.585Z,2.3
2018-12-26T08:58:01.822Z,2.1
2018-12-26T08:58:54.386Z,2
2018-12-26T08:59:42.121Z,1.9
2018-12-26T09:00:32.461Z,2
2018-12-26T09:16:27.232Z,1.6
2018-12-26T09:17:16.644Z,1.7
2018-12-26T09:18:06.451Z,1.7
2018-12-26T09:18:56.784Z,1.6
2018-12-26T09:19:46.549Z,1.6
2018-12-26T09:20:36.704Z,1.8
2018-12-26T09:21:26.747Z,1.8
2018-12-26T09:22:16.981Z,1.8
2018-12-26T09:23:06.786Z,1.8
2018-12-26T09:23:56.964Z,1.6
2018-12-26T09:24:46.639Z,1.6
2018-12-26T09:25:36.958Z,1.6
2018-12-26T09:26:27.066Z,1.5
2018-12-26T09:27:17.060Z,1.6
2018-12-26T09:28:07.126Z,1.7
2018-12-26T09:28:57.448Z,1.7
2018-12-26T09:29:47.513Z,1.6
2018-12-26T09:30:37.571Z,1.6
2018-12-26T09:31:27.376Z,1.7
2018-12-26T09:32:17.138Z,1.6
2018-12-26T09:33:07.575Z,1.6
2018-12-26T09:33:57.246Z,1.6
2018-12-26T09:34:47.308Z,1.5
2018-12-26T09:35:37.916Z,1.5
2018-12-26T09:36:27.420Z,1.4
2018-12-26T09:37:17.490Z,1.6
2018-12-26T09:38:07.815Z,1.6
2018-12-26T09:38:57.580Z,1.5
2018-12-26T09:39:47.933Z,1.6
2018-12-26T09:40:38.247Z,1.6
2018-12-26T09:41:27.762Z,1.6
2018-12-26T09:42:18.084Z,1.6
2018-12-26T09:43:08.432Z,1.6
2018-12-26T09:43:58.217Z,1.5
2018-12-26T09:44:56.458Z,1.4
2018-12-26T09:45:38.062Z,1.4
2018-12-26T09:46:28.387Z,1.5
2018-12-26T09:47:18.489Z,1.6
2018-12-26T09:48:08.492Z,1.6
2018-12-26T09:48:58.011Z,1.6
2018-12-26T09:49:48.634Z,1.6
2018-12-26T09:50:38.709Z,1.6
2018-12-26T09:51:28.745Z,1.8
2018-12-26T09:52:19.179Z,1.8
2018-12-26T09:53:09.129Z,1.8
2018-12-26T09:53:58.731Z,1.8
2018-12-26T09:54:50.755Z,1.8
2018-12-26T09:55:38.743Z,1.9
2018-12-26T09:56:28.534Z,1.9
2018-12-26T09:57:19.266Z,2
2018-12-26T09:58:08.893Z,1.9
2018-12-26T09:58:59.514Z,2
2018-12-26T09:59:49.028Z,1.9
2018-12-26T10:00:39.738Z,1.8
2018-12-26T10:01:29.738Z,2
2018-12-26T10:02:19.484Z,2
2018-12-26T10:03:09.250Z,2
2018-12-26T10:03:58.861Z,1.9
2018-12-26T10:04:49.938Z,1.9
2018-12-26T10:05:40.000Z,1.9
2018-12-26T10:06:29.774Z,1.9
2018-12-26T10:07:19.559Z,1.9
2018-12-26T10:08:10.155Z,2
2018-12-26T10:09:00.000Z,2.1
2018-12-26T10:09:49.446Z,2.1
2018-12-26T10:10:40.348Z,2
2018-12-26T10:11:30.403Z,2
2018-12-26T10:12:20.466Z,2.1
2018-12-26T10:13:10.237Z,2.2
2018-12-26T10:14:00.027Z,2.1
2018-12-26T10:14:50.082Z,2
2018-12-26T10:15:40.417Z,2
2018-12-26T10:16:30.458Z,2
2018-12-26T10:17:20.534Z,2
2018-12-26T10:18:10.544Z,2
2018-12-26T10:19:00.912Z,2
2018-12-26T10:19:52.874Z,1.9
2018-12-26T10:20:41.005Z,2
2018-12-26T10:21:30.797Z,2.1
2018-12-26T10:22:20.906Z,2.1
2018-12-26T10:23:10.909Z,1.9
2018-12-26T10:24:01.279Z,1.9
2018-12-26T10:24:51.011Z,2
2018-12-26T10:25:41.169Z,2.1
2018-12-26T10:26:31.149Z,2.1
2018-12-26T10:27:21.712Z,2
2018-12-26T10:28:10.972Z,2
2018-12-26T10:29:03.743Z,2.1
2018-12-26T10:29:51.644Z,2
2018-12-26T10:30:41.304Z,1.9
2018-12-26T10:31:31.761Z,1.9
2018-12-26T10:32:21.264Z,1.8
2018-12-26T10:33:11.606Z,1.9
2018-12-26T10:34:01.916Z,1.9
2018-12-26T10:34:51.982Z,1.9
2018-12-26T10:35:41.766Z,1.9
2018-12-26T10:36:32.091Z,1.8
2018-12-26T10:37:21.933Z,1.8
2018-12-26T10:38:11.641Z,1.9
2018-12-26T10:39:02.224Z,1.8
2018-12-26T10:39:52.052Z,1.9
2018-12-26T10:40:42.397Z,1.9
2018-12-26T10:41:32.161Z,1.8
2018-12-26T10:42:21.665Z,1.9
2018-12-26T10:43:12.546Z,1.9
2018-12-26T10:44:01.788Z,1.9
2018-12-26T10:44:52.387Z,1.9
2018-12-26T10:45:42.163Z,2
2018-12-26T10:46:32.583Z,1.9
2018-12-26T10:47:22.565Z,1.9
2018-12-26T10:48:12.666Z,1.9
2018-12-26T10:49:02.405Z,1.8
2018-12-26T10:49:52.725Z,1.8
2018-12-26T10:50:42.526Z,1.9
2018-12-26T10:51:32.391Z,1.8
2018-12-26T10:52:22.652Z,1.8
2018-12-26T10:53:12.955Z,1.8
2018-12-26T10:54:03.026Z,1.8
2018-12-26T10:54:53.097Z,1.9
2018-12-26T10:55:43.209Z,1.9
2018-12-26T10:56:33.187Z,1.9
2018-12-26T10:57:23.536Z,1.9
2018-12-26T10:58:13.667Z,1.9
2018-12-26T10:59:12.522Z,1.9
2018-12-26T10:59:53.404Z,1.9
2018-12-26T11:00:43.483Z,1.9
2018-12-26T11:01:33.542Z,1.9
2018-12-26T11:02:23.040Z,2
2018-12-26T11:03:13.915Z,2
2018-12-26T11:04:03.707Z,2.1
2018-12-26T11:04:53.550Z,2.1
2018-12-26T11:05:43.823Z,2.1
2018-12-26T11:06:33.889Z,2
2018-12-26T11:07:24.223Z,2
2018-12-26T11:08:14.579Z,2
2018-12-26T11:09:04.051Z,2.1
2018-12-26T11:09:54.164Z,2.1
2018-12-26T11:10:44.449Z,2.2
2018-12-26T11:11:33.953Z,2.2
2018-12-26T11:12:24.346Z,2.1
2018-12-26T11:13:14.359Z,2.1
2018-12-26T11:14:04.412Z,2
2018-12-26T11:14:54.424Z,2
2018-12-26T11:15:44.525Z,1.9
2018-12-26T11:16:34.856Z,1.9
2018-12-26T11:17:24.632Z,2
2018-12-26T11:18:14.688Z,1.9
2018-12-26T11:19:05.136Z,1.9
2018-12-26T11:19:55.101Z,1.9
2018-12-26T11:20:44.899Z,2
2018-12-26T11:21:34.913Z,2
2018-12-26T11:22:25.363Z,2.1
2018-12-26T11:23:15.313Z,2.1
2018-12-26T11:24:04.811Z,2.2
2018-12-26T11:24:54.921Z,2.3
2018-12-26T11:25:44.929Z,2.4
2018-12-26T11:26:35.533Z,2.4
2018-12-26T11:27:25.126Z,2.6
2018-12-26T11:28:15.475Z,2.6
2018-12-26T11:29:05.691Z,2.7
2018-12-26T11:29:55.728Z,2.9
2018-12-26T11:30:45.553Z,3.1
2018-12-26T11:31:35.843Z,3.3
2018-12-26T11:32:25.655Z,3.2
2018-12-26T11:33:15.523Z,3.1
2018-12-26T11:34:05.786Z,3.2
2018-12-26T11:34:56.070Z,3.1
2018-12-26T11:35:45.595Z,3.1
2018-12-26T11:36:36.548Z,2.8
2018-12-26T11:37:25.833Z,2.7
2018-12-26T11:38:16.320Z,2.6
2018-12-26T11:39:05.822Z,2.6
2018-12-26T11:39:56.448Z,2.6
2018-12-26T11:40:46.475Z,2.6
2018-12-26T11:41:36.548Z,2.6
2018-12-26T11:42:25.825Z,2.8
2018-12-26T11:43:16.676Z,2.9
2018-12-26T11:44:06.263Z,2.9
2018-12-26T11:44:56.778Z,2.9
2018-12-26T11:45:46.350Z,2.9
2018-12-26T11:46:36.637Z,2.8
2018-12-26T11:47:26.692Z,2.6
2018-12-26T11:48:16.758Z,2.7
2018-12-26T11:49:06.817Z,2.7
2018-12-26T11:49:56.877Z,2.6
2018-12-26T11:50:46.917Z,2.6
2018-12-26T11:51:37.242Z,2.6
2018-12-26T11:52:26.769Z,2.6
2018-12-26T11:53:16.807Z,2.5
2018-12-26T11:54:06.874Z,2.4
2018-12-26T11:54:57.200Z,2.4
2018-12-26T11:55:47.271Z,2.5
2018-12-26T11:56:37.037Z,2.6
2018-12-26T11:57:26.910Z,2.6
2018-12-26T11:58:16.880Z,2.7
2018-12-26T11:59:07.769Z,2.6
2018-12-26T11:59:57.266Z,2.5
2018-12-26T12:00:47.889Z,2.4
2018-12-26T12:01:37.371Z,2.4
2018-12-26T12:02:27.434Z,2.5
2018-12-26T12:03:17.509Z,2.5
2018-12-26T12:04:07.301Z,2.5
2018-12-26T12:04:57.922Z,2.4
2018-12-26T12:05:47.925Z,2.3
2018-12-26T12:06:38.269Z,2.3
2018-12-26T12:07:27.221Z,2.3
2018-12-26T12:08:17.845Z,2.3
2018-12-26T12:09:08.173Z,2.1
2018-12-26T12:09:57.698Z,2.1
2018-12-26T12:10:50.717Z,2.2
2018-12-26T12:11:38.332Z,2.2
2018-12-26T12:12:28.694Z,2.1
2018-12-26T12:13:18.178Z,2.2